Home > Products > Valid Products > TAF

000
FTUS43 KGLD 020520
TAFMCK
TAF
KMCK 020520Z 0206/0306 22007KT P6SM SCT200
     FM021600 27005KT P6SM FEW080
     FM021800 VRB06KT P6SM SCT200=



000
FTUS43 KGLD 020520
TAFMCK
TAF
KMCK 020520Z 0206/0306 22007KT P6SM SCT200
     FM021600 27005KT P6SM FEW080
     FM021800 VRB06KT P6SM SCT200=



000
FTUS43 KGLD 020520
TAFGLD
TAF
KGLD 020520Z 0206/0306 19008KT P6SM SCT200
     FM021400 23005KT P6SM FEW250
     FM021800 15004KT P6SM SCT250
     FM030000 16008KT P6SM SCT200=



000
FTUS43 KGLD 012320
TAFGLD
TAF
KGLD 012320Z 0200/0224 17012KT P6SM FEW200
     FM020600 19009KT P6SM SCT250
     FM021400 23005KT P6SM FEW250
     FM021800 15004KT P6SM SCT250=



000
FTUS43 KGLD 012320
TAFMCK
TAF
KMCK 012320Z 0200/0224 15010G20KT P6SM SCT100
     FM020200 15007KT P6SM FEW200
     FM020700 21006KT P6SM SCT100
     FM021600 27005KT P6SM FEW080
     FM021800 VRB06KT P6SM FEW200=



000
FTUS43 KGLD 012320
TAFGLD
TAF
KGLD 012320Z 0200/0224 17012KT P6SM FEW200
     FM020600 19009KT P6SM SCT250
     FM021400 23005KT P6SM FEW250
     FM021800 15004KT P6SM SCT250=



000
FTUS43 KGLD 012320
TAFMCK
TAF
KMCK 012320Z 0200/0224 15010G20KT P6SM SCT100
     FM020200 15007KT P6SM FEW200
     FM020700 21006KT P6SM SCT100
     FM021600 27005KT P6SM FEW080
     FM021800 VRB06KT P6SM FEW200=



000
FTUS43 KGLD 012320
TAFMCK
TAF
KMCK 012320Z 0200/0224 15010G20KT P6SM SCT100
     FM020200 15007KT P6SM FEW200
     FM020700 21006KT P6SM SCT100
     FM021600 27005KT P6SM FEW080
     FM021800 VRB06KT P6SM FEW200=



000
FTUS43 KGLD 011721
TAFGLD
TAF
KGLD 011721Z 0118/0218 18013G21KT P6SM FEW080 SCT250
     FM020300 18010KT P6SM FEW250
     FM021100 22007KT P6SM SCT250=



000
FTUS43 KGLD 011721
TAFMCK
TAF
KMCK 011721Z 0118/0218 17012KT P6SM FEW070 FEW250
     FM020600 20010KT P6SM FEW035 SCT120
     FM021500 23005KT P6SM FEW080=



000
FTUS43 KGLD 011721
TAFMCK
TAF
KMCK 011721Z 0118/0218 17012KT P6SM FEW070 FEW250
     FM020600 20010KT P6SM FEW035 SCT120
     FM021500 23005KT P6SM FEW080=



000
FTUS43 KGLD 011721
TAFGLD
TAF
KGLD 011721Z 0118/0218 18013G21KT P6SM FEW080 SCT250
     FM020300 18010KT P6SM FEW250
     FM021100 22007KT P6SM SCT250=



000
FTUS43 KGLD 011721
TAFMCK
TAF
KMCK 011721Z 0118/0218 17012KT P6SM FEW070 FEW250
     FM020600 20010KT P6SM FEW035 SCT120
     FM021500 23005KT P6SM FEW080=



000
FTUS43 KGLD 011721
TAFMCK
TAF
KMCK 011721Z 0118/0218 17012KT P6SM FEW070 FEW250
     FM020600 20010KT P6SM FEW035 SCT120
     FM021500 23005KT P6SM FEW080=



000
FTUS43 KGLD 011130
TAFGLD
TAF
KGLD 011130Z 0112/0212 21008KT P6SM FEW250
     FM011600 18014G22KT P6SM SCT250
     FM020000 16010KT P6SM FEW250
     FM020600 19010KT P6SM SCT250=



000
FTUS43 KGLD 011130
TAFMCK
TAF
KMCK 011130Z 0112/0212 19006KT P6SM SCT250
     FM011800 18010G18KT P6SM FEW250
     FM020000 16006KT P6SM SCT250
     FM020600 20010KT P6SM SCT250=



000
FTUS43 KGLD 011130
TAFMCK
TAF
KMCK 011130Z 0112/0212 19006KT P6SM SCT250
     FM011800 18010G18KT P6SM FEW250
     FM020000 16006KT P6SM SCT250
     FM020600 20010KT P6SM SCT250=



000
FTUS43 KGLD 011130
TAFMCK
TAF
KMCK 011130Z 0112/0212 19006KT P6SM SCT250
     FM011800 18010G18KT P6SM FEW250
     FM020000 16006KT P6SM SCT250
     FM020600 20010KT P6SM SCT250=



000
FTUS43 KGLD 011004 AAC
TAFMCK
TAF AMD
KMCK 011004Z 0110/0206 14010KT P6SM SKC
     FM011700 18010G20KT P6SM FEW250
     FM020100 18010KT P6SM FEW250=



000
FTUS43 KGLD 010807 AAC
TAFGLD
TAF AMD
KGLD 010807Z 0108/0206 21012KT P6SM SKC
     FM011800 19010G20KT P6SM FEW250
     FM020200 20010KT P6SM FEW250=



000
FTUS43 KGLD 010806 AAB
TAFMCK
TAF AMD
KMCK 010806Z 0108/0206 07014G22KT P6SM VCTS BKN080CB
     FM011000 10012KT P6SM SKC
     FM011700 18010G20KT P6SM FEW250
     FM020100 18010KT P6SM FEW250=



000
FTUS43 KGLD 010806 AAB
TAFMCK
TAF AMD
KMCK 010806Z 0108/0206 07014G22KT P6SM VCTS BKN080CB
     FM011000 10012KT P6SM SKC
     FM011700 18010G20KT P6SM FEW250
     FM020100 18010KT P6SM FEW250=



000
FTUS43 KGLD 010719 AAA
TAFMCK
TAF AMD
KMCK 010719Z 0107/0206 17005KT P6SM VCTS SCT070CB
     FM011000 17005KT P6SM SKC
     FM011700 18010G20KT P6SM FEW250
     FM020100 18010KT P6SM FEW250=



000
FTUS43 KGLD 010719 AAA
TAFMCK
TAF AMD
KMCK 010719Z 0107/0206 17005KT P6SM VCTS SCT070CB
     FM011000 17005KT P6SM SKC
     FM011700 18010G20KT P6SM FEW250
     FM020100 18010KT P6SM FEW250=



000
FTUS43 KGLD 010719 AAA
TAFMCK
TAF AMD
KMCK 010719Z 0107/0206 17005KT P6SM VCTS SCT070CB
     FM011000 17005KT P6SM SKC
     FM011700 18010G20KT P6SM FEW250
     FM020100 18010KT P6SM FEW250=



000
FTUS43 KGLD 010719 AAA
TAFMCK
TAF AMD
KMCK 010719Z 0107/0206 17005KT P6SM VCTS SCT070CB
     FM011000 17005KT P6SM SKC
     FM011700 18010G20KT P6SM FEW250
     FM020100 18010KT P6SM FEW250=



000
FTUS43 KGLD 010521
TAFMCK
TAF
KMCK 010521Z 0106/0206 17005KT P6SM SKC
     FM011700 18010G20KT P6SM FEW250
     FM020100 18010KT P6SM FEW250=



000
FTUS43 KGLD 010521
TAFMCK
TAF
KMCK 010521Z 0106/0206 17005KT P6SM SKC
     FM011700 18010G20KT P6SM FEW250
     FM020100 18010KT P6SM FEW250=



000
FTUS43 KGLD 010521
TAFGLD
TAF
KGLD 010521Z 0106/0206 19012KT P6SM SKC
     FM011800 19010G20KT P6SM FEW250
     FM020200 20010KT P6SM FEW250=



000
FTUS43 KGLD 010521
TAFMCK
TAF
KMCK 010521Z 0106/0206 17005KT P6SM SKC
     FM011700 18010G20KT P6SM FEW250
     FM020100 18010KT P6SM FEW250=



000
FTUS43 KGLD 010521
TAFGLD
TAF
KGLD 010521Z 0106/0206 19012KT P6SM SKC
     FM011800 19010G20KT P6SM FEW250
     FM020200 20010KT P6SM FEW250=



000
FTUS43 KGLD 312338 CCA
TAFMCK
TAF COR
KMCK 312338Z 0100/0124 VRB06KT P6SM FEW250
     FM011700 18010G20KT P6SM FEW250
     FM012300 18010KT P6SM FEW250=



000
FTUS43 KGLD 312338 CCA
TAFMCK
TAF COR
KMCK 312338Z 0100/0124 VRB06KT P6SM FEW250
     FM011700 18010G20KT P6SM FEW250
     FM012300 18010KT P6SM FEW250=



000
FTUS43 KGLD 312338 CCA
TAFMCK
TAF COR
KMCK 312338Z 0100/0124 VRB06KT P6SM FEW250
     FM011700 18010G20KT P6SM FEW250
     FM012300 18010KT P6SM FEW250=



000
FTUS43 KGLD 312338 CCA
TAFMCK
TAF COR
KMCK 312338Z 0100/0124 VRB06KT P6SM FEW250
     FM011700 18010G20KT P6SM FEW250
     FM012300 18010KT P6SM FEW250=



000
FTUS43 KGLD 312334
TAFMCK
TAF
KMCK 312334Z 0100/0124 VRB06KT P6SM FEW250
     FM011700 18010G20KT P6SM SCT250
     FM011800 19010G20KT P6SM FEW250
     FM012300 18010KT P6SM FEW250=



000
FTUS43 KGLD 312334
TAFMCK
TAF
KMCK 312334Z 0100/0124 VRB06KT P6SM FEW250
     FM011700 18010G20KT P6SM SCT250
     FM011800 19010G20KT P6SM FEW250
     FM012300 18010KT P6SM FEW250=



000
FTUS43 KGLD 312334
TAFGLD
TAF
KGLD 312334Z 0100/0124 22010KT P6SM FEW200
      TEMPO 0100/0101 36015G30KT
     FM011800 19010G20KT P6SM FEW250=



000
FTUS43 KGLD 312334
TAFMCK
TAF
KMCK 312334Z 0100/0124 VRB06KT P6SM FEW250
     FM011700 18010G20KT P6SM SCT250
     FM011800 19010G20KT P6SM FEW250
     FM012300 18010KT P6SM FEW250=



000
FTUS43 KGLD 312334
TAFGLD
TAF
KGLD 312334Z 0100/0124 22010KT P6SM FEW200
      TEMPO 0100/0101 36015G30KT
     FM011800 19010G20KT P6SM FEW250=



000
FTUS43 KGLD 312334
TAFMCK
TAF
KMCK 312334Z 0100/0124 VRB06KT P6SM FEW250
     FM011700 18010G20KT P6SM SCT250
     FM011800 19010G20KT P6SM FEW250
     FM012300 18010KT P6SM FEW250=



000
FTUS43 KGLD 311720
TAFGLD
TAF
KGLD 311720Z 3118/0118 18008KT P6SM FEW030 SCT250
     FM011600 19013G20KT P6SM SCT250=



000
FTUS43 KGLD 311720
TAFMCK
TAF
KMCK 311720Z 3118/0118 20006KT P6SM FEW030 SCT250
     FM011700 19011KT P6SM SCT250=



000
FTUS43 KGLD 311720
TAFMCK
TAF
KMCK 311720Z 3118/0118 20006KT P6SM FEW030 SCT250
     FM011700 19011KT P6SM SCT250=



000
FTUS43 KGLD 311413 AAB
TAFGLD
TAF AMD
KGLD 311413Z 3114/0112 VRB05KT P6SM FEW250
     FM311500 19007KT P6SM SCT250=



000
FTUS43 KGLD 311413 AAB
TAFGLD
TAF AMD
KGLD 311413Z 3114/0112 VRB05KT P6SM FEW250
     FM311500 19007KT P6SM SCT250=



000
FTUS43 KGLD 311234 AAA
TAFGLD
TAF AMD
KGLD 311234Z 3113/0112 VRB05KT 3SM BR SCT007
      TEMPO 3113/3114 3SM BR
     FM311500 19007KT P6SM SCT250=



000
FTUS43 KGLD 311234 AAA
TAFGLD
TAF AMD
KGLD 311234Z 3113/0112 VRB05KT 3SM BR SCT007
      TEMPO 3113/3114 3SM BR
     FM311500 19007KT P6SM SCT250=



000
FTUS43 KGLD 311120
TAFGLD
TAF
KGLD 311120Z 3112/0112 VRB05KT 3SM BR SCT007
      TEMPO 3112/3114 1/2SM FG BKN005
     FM311500 19007KT P6SM SCT250=



000
FTUS43 KGLD 311120
TAFMCK
TAF
KMCK 311120Z 3112/0112 21005KT P6SM FEW250=



000
FTUS43 KGLD 311120
TAFMCK
TAF
KMCK 311120Z 3112/0112 21005KT P6SM FEW250=



000
FTUS43 KGLD 311022 AAA
TAFGLD
TAF AMD
KGLD 311022Z 3110/0106 20010KT 3SM BR SKC
      TEMPO 3110/3114 1/2SM FG
     FM311500 22006KT P6SM SCT200
     FM311800 17007KT P6SM FEW250
     FM312200 15011KT P6SM SCT250
     FM010000 15010KT P6SM SCT250=



000
FTUS43 KGLD 311022 AAA
TAFGLD
TAF AMD
KGLD 311022Z 3110/0106 20010KT 3SM BR SKC
      TEMPO 3110/3114 1/2SM FG
     FM311500 22006KT P6SM SCT200
     FM311800 17007KT P6SM FEW250
     FM312200 15011KT P6SM SCT250
     FM010000 15010KT P6SM SCT250=



000
FTUS43 KGLD 310522
TAFMCK
TAF
KMCK 310522Z 3106/0106 21004KT P6SM FEW250
     FM311000 VRB03KT P6SM SCT250
     FM312200 15007KT P6SM SCT250
     FM010000 16006KT P6SM FEW250=



000
FTUS43 KGLD 310522
TAFMCK
TAF
KMCK 310522Z 3106/0106 21004KT P6SM FEW250
     FM311000 VRB03KT P6SM SCT250
     FM312200 15007KT P6SM SCT250
     FM010000 16006KT P6SM FEW250=



000
FTUS43 KGLD 310522
TAFGLD
TAF
KGLD 310522Z 3106/0106 20010KT P6SM FEW250
     FM311100 22006KT P6SM SCT200
     FM311800 17007KT P6SM FEW250
     FM312200 15011KT P6SM SCT250
     FM010000 15010KT P6SM SCT250=



000
FTUS43 KGLD 310522
TAFGLD
TAF
KGLD 310522Z 3106/0106 20010KT P6SM FEW250
     FM311100 22006KT P6SM SCT200
     FM311800 17007KT P6SM FEW250
     FM312200 15011KT P6SM SCT250
     FM010000 15010KT P6SM SCT250=



000
FTUS43 KGLD 310522
TAFMCK
TAF
KMCK 310522Z 3106/0106 21004KT P6SM FEW250
     FM311000 VRB03KT P6SM SCT250
     FM312200 15007KT P6SM SCT250
     FM010000 16006KT P6SM FEW250=



000
FTUS43 KGLD 310522
TAFMCK
TAF
KMCK 310522Z 3106/0106 21004KT P6SM FEW250
     FM311000 VRB03KT P6SM SCT250
     FM312200 15007KT P6SM SCT250
     FM010000 16006KT P6SM FEW250=



000
FTUS43 KGLD 302320
TAFMCK
TAF
KMCK 302320Z 3100/3124 VRB06KT P6SM SKC
     FM311000 VRB03KT P6SM SCT250
     FM312200 15007KT P6SM SCT250=



000
FTUS43 KGLD 302320
TAFGLD
TAF
KGLD 302320Z 3100/3124 17010KT P6SM FEW250
     FM311100 22006KT P6SM SCT200
     FM311800 15007KT P6SM FEW250
     FM312200 15011KT P6SM SCT250=



000
FTUS43 KGLD 302320
TAFMCK
TAF
KMCK 302320Z 3100/3124 VRB06KT P6SM SKC
     FM311000 VRB03KT P6SM SCT250
     FM312200 15007KT P6SM SCT250=



000
FTUS43 KGLD 301721
TAFMCK
TAF
KMCK 301721Z 3018/3118 18007KT P6SM FEW060 SCT250
     FM310300 VRB03KT P6SM SCT250=



000
FTUS43 KGLD 301721
TAFGLD
TAF
KGLD 301721Z 3018/3118 18007KT P6SM FEW060 SCT250
     FM311200 22010KT P6SM FEW250=



000
FTUS43 KGLD 301721
TAFGLD
TAF
KGLD 301721Z 3018/3118 18007KT P6SM FEW060 SCT250
     FM311200 22010KT P6SM FEW250=



000
FTUS43 KGLD 301721
TAFMCK
TAF
KMCK 301721Z 3018/3118 18007KT P6SM FEW060 SCT250
     FM310300 VRB03KT P6SM SCT250=



000
FTUS43 KGLD 301721
TAFMCK
TAF
KMCK 301721Z 3018/3118 18007KT P6SM FEW060 SCT250
     FM310300 VRB03KT P6SM SCT250=



000
FTUS43 KGLD 301721
TAFMCK
TAF
KMCK 301721Z 3018/3118 18007KT P6SM FEW060 SCT250
     FM310300 VRB03KT P6SM SCT250=



000
FTUS43 KGLD 301127
TAFMCK
TAF
KMCK 301127Z 3012/3112 18005KT P6SM FEW250=



000
FTUS43 KGLD 301127
TAFMCK
TAF
KMCK 301127Z 3012/3112 18005KT P6SM FEW250=



000
FTUS43 KGLD 301127
TAFGLD
TAF
KGLD 301127Z 3012/3112 18005KT P6SM SCT015
     FM301500 19008KT P6SM SCT250=



    US Dept of Commerce
    National Oceanic and Atmospheric Administration
    National Weather Service
    1325 East West Highway
    Silver Spring, MD 20910
    Page Author: NWS Internet Services Team
Disclaimer
Information Quality
Credits
Glossary
Privacy Policy
Freedom of Information Act (FOIA)
About Us
Career Opportunities